sensor_id;sensor_type;location;lat;lon;timestamp;temperature;humidity
24744;DHT22;12844;52.110;5.548;2023-03-21T00:00:34;18.30;55.00
24744;DHT22;12844;52.110;5.548;2023-03-21T00:03:00;18.30;55.00
24744;DHT22;12844;52.110;5.548;2023-03-21T00:05:26;18.30;55.10
24744;DHT22;12844;52.110;5.548;2023-03-21T00:07:51;18.30;55.00
24744;DHT22;12844;52.110;5.548;2023-03-21T00:10:17;18.30;55.00
24744;DHT22;12844;52.110;5.548;2023-03-21T00:12:42;18.30;55.10
24744;DHT22;12844;52.110;5.548;2023-03-21T00:15:10;18.30;55.10
24744;DHT22;12844;52.110;5.548;2023-03-21T00:17:37;18.30;55.10
24744;DHT22;12844;52.110;5.548;2023-03-21T00:20:05;18.30;55.10
24744;DHT22;12844;52.110;5.548;2023-03-21T00:22:33;18.30;55.20
24744;DHT22;12844;52.110;5.548;2023-03-21T00:24:59;18.30;55.10
24744;DHT22;12844;52.110;5.548;2023-03-21T00:27:25;18.30;55.60
24744;DHT22;12844;52.110;5.548;2023-03-21T00:29:50;18.30;55.00
24744;DHT22;12844;52.110;5.548;2023-03-21T00:32:17;18.30;55.00
24744;DHT22;12844;52.110;5.548;2023-03-21T00:34:43;18.30;55.00
24744;DHT22;12844;52.110;5.548;2023-03-21T00:37:10;18.30;55.00
24744;DHT22;12844;52.110;5.548;2023-03-21T00:39:37;18.30;55.00
24744;DHT22;12844;52.110;5.548;2023-03-21T00:42:03;18.20;54.90
24744;DHT22;12844;52.110;5.548;2023-03-21T00:44:28;18.20;54.80
24744;DHT22;12844;52.110;5.548;2023-03-21T00:47:03;18.20;54.90
24744;DHT22;12844;52.110;5.548;2023-03-21T00:49:29;18.20;54.80
24744;DHT22;12844;52.110;5.548;2023-03-21T00:51:59;18.20;54.80
24744;DHT22;12844;52.110;5.548;2023-03-21T00:54:25;18.20;54.80
24744;DHT22;12844;52.110;5.548;2023-03-21T00:56:51;18.20;54.80
24744;DHT22;12844;52.110;5.548;2023-03-21T00:59:17;18.20;54.80
24744;DHT22;12844;52.110;5.548;2023-03-21T01:01:43;18.20;54.80
24744;DHT22;12844;52.110;5.548;2023-03-21T01:04:11;18.20;54.70
24744;DHT22;12844;52.110;5.548;2023-03-21T01:06:40;18.20;54.70
24744;DHT22;12844;52.110;5.548;2023-03-21T01:09:10;18.20;54.70
24744;DHT22;12844;52.110;5.548;2023-03-21T01:11:36;18.20;54.70
24744;DHT22;12844;52.110;5.548;2023-03-21T01:14:02;18.20;54.70
24744;DHT22;12844;52.110;5.548;2023-03-21T01:16:28;18.20;54.70
24744;DHT22;12844;52.110;5.548;2023-03-21T01:18:53;18.20;54.70
24744;DHT22;12844;52.110;5.548;2023-03-21T01:21:19;18.20;54.70
24744;DHT22;12844;52.110;5.548;2023-03-21T01:23:44;18.10;54.70
24744;DHT22;12844;52.110;5.548;2023-03-21T01:26:11;18.20;54.70
24744;DHT22;12844;52.110;5.548;2023-03-21T01:28:39;18.20;54.70
24744;DHT22;12844;52.110;5.548;2023-03-21T01:31:05;18.20;54.70
24744;DHT22;12844;52.110;5.548;2023-03-21T01:33:31;18.10;54.60
24744;DHT22;12844;52.110;5.548;2023-03-21T01:35:57;18.10;54.60
24744;DHT22;12844;52.110;5.548;2023-03-21T01:38:24;18.10;54.60
24744;DHT22;12844;52.110;5.548;2023-03-21T01:40:50;18.10;54.60
24744;DHT22;12844;52.110;5.548;2023-03-21T01:43:33;18.10;54.60
24744;DHT22;12844;52.110;5.548;2023-03-21T01:48:26;18.10;54.60
24744;DHT22;12844;52.110;5.548;2023-03-21T01:50:53;18.10;54.50
24744;DHT22;12844;52.110;5.548;2023-03-21T01:53:21;18.10;54.60
24744;DHT22;12844;52.110;5.548;2023-03-21T01:55:48;18.10;54.60
24744;DHT22;12844;52.110;5.548;2023-03-21T01:58:15;18.10;54.50
24744;DHT22;12844;52.110;5.548;2023-03-21T02:00:44;18.10;54.50
24744;DHT22;12844;52.110;5.548;2023-03-21T02:03:10;18.10;54.60
24744;DHT22;12844;52.110;5.548;2023-03-21T02:05:50;18.10;54.50
24744;DHT22;12844;52.110;5.548;2023-03-21T02:08:17;18.10;54.50
24744;DHT22;12844;52.110;5.548;2023-03-21T02:10:44;18.10;54.50
24744;DHT22;12844;52.110;5.548;2023-03-21T02:13:11;18.10;54.50
24744;DHT22;12844;52.110;5.548;2023-03-21T02:15:38;18.10;54.50
24744;DHT22;12844;52.110;5.548;2023-03-21T02:20:53;18.10;54.50
24744;DHT22;12844;52.110;5.548;2023-03-21T02:26:54;18.10;54.60
24744;DHT22;12844;52.110;5.548;2023-03-21T02:37:31;18.00;54.70
24744;DHT22;12844;52.110;5.548;2023-03-21T02:40:22;18.10;54.60
24744;DHT22;12844;52.110;5.548;2023-03-21T02:43:01;18.10;54.60
24744;DHT22;12844;52.110;5.548;2023-03-21T02:45:39;18.00;54.70
24744;DHT22;12844;52.110;5.548;2023-03-21T02:48:12;18.00;54.60
24744;DHT22;12844;52.110;5.548;2023-03-21T02:50:48;18.00;54.60
24744;DHT22;12844;52.110;5.548;2023-03-21T02:53:19;18.00;54.60
24744;DHT22;12844;52.110;5.548;2023-03-21T02:55:46;18.00;54.50
24744;DHT22;12844;52.110;5.548;2023-03-21T02:58:15;18.00;54.50
24744;DHT22;12844;52.110;5.548;2023-03-21T03:00:41;18.00;54.50
24744;DHT22;12844;52.110;5.548;2023-03-21T03:03:08;18.00;54.50
24744;DHT22;12844;52.110;5.548;2023-03-21T03:05:36;18.00;54.40
24744;DHT22;12844;52.110;5.548;2023-03-21T03:18:53;18.00;54.50
24744;DHT22;12844;52.110;5.548;2023-03-21T03:21:27;17.90;54.40
24744;DHT22;12844;52.110;5.548;2023-03-21T03:26:37;18.00;54.50
24744;DHT22;12844;52.110;5.548;2023-03-21T03:29:11;17.90;54.40
24744;DHT22;12844;52.110;5.548;2023-03-21T03:31:41;17.90;54.40
24744;DHT22;12844;52.110;5.548;2023-03-21T03:34:11;17.90;54.40
24744;DHT22;12844;52.110;5.548;2023-03-21T03:36:40;17.90;54.30
24744;DHT22;12844;52.110;5.548;2023-03-21T03:39:09;17.90;54.30
24744;DHT22;12844;52.110;5.548;2023-03-21T03:42:06;17.90;54.30
24744;DHT22;12844;52.110;5.548;2023-03-21T03:44:33;17.90;54.20
24744;DHT22;12844;52.110;5.548;2023-03-21T03:47:09;17.90;54.90
24744;DHT22;12844;52.110;5.548;2023-03-21T03:49:45;17.90;54.20
24744;DHT22;12844;52.110;5.548;2023-03-21T03:52:25;17.90;54.30
24744;DHT22;12844;52.110;5.548;2023-03-21T03:54:53;17.90;54.20
24744;DHT22;12844;52.110;5.548;2023-03-21T03:57:19;17.90;54.20
24744;DHT22;12844;52.110;5.548;2023-03-21T03:59:45;17.90;54.20
24744;DHT22;12844;52.110;5.548;2023-03-21T04:02:12;17.90;54.20
24744;DHT22;12844;52.110;5.548;2023-03-21T04:04:38;17.90;54.10
24744;DHT22;12844;52.110;5.548;2023-03-21T04:07:04;17.90;54.10
24744;DHT22;12844;52.110;5.548;2023-03-21T04:09:31;17.90;54.10
24744;DHT22;12844;52.110;5.548;2023-03-21T04:11:57;17.90;54.10
24744;DHT22;12844;52.110;5.548;2023-03-21T04:14:24;17.90;54.10
24744;DHT22;12844;52.110;5.548;2023-03-21T04:16:50;17.90;54.10
24744;DHT22;12844;52.110;5.548;2023-03-21T04:19:17;17.90;54.10
24744;DHT22;12844;52.110;5.548;2023-03-21T04:21:43;17.80;54.00
24744;DHT22;12844;52.110;5.548;2023-03-21T04:24:09;17.90;54.10
24744;DHT22;12844;52.110;5.548;2023-03-21T04:26:36;17.80;54.10
24744;DHT22;12844;52.110;5.548;2023-03-21T04:29:03;17.90;54.10
24744;DHT22;12844;52.110;5.548;2023-03-21T04:31:29;17.80;54.10
24744;DHT22;12844;52.110;5.548;2023-03-21T04:34:04;17.80;54.10
24744;DHT22;12844;52.110;5.548;2023-03-21T04:36:35;17.80;54.00
24744;DHT22;12844;52.110;5.548;2023-03-21T04:39:07;17.80;54.10
24744;DHT22;12844;52.110;5.548;2023-03-21T04:41:41;17.80;54.00
24744;DHT22;12844;52.110;5.548;2023-03-21T04:44:07;17.80;54.00
24744;DHT22;12844;52.110;5.548;2023-03-21T04:46:34;17.80;54.00
24744;DHT22;12844;52.110;5.548;2023-03-21T04:49:00;17.80;54.00
24744;DHT22;12844;52.110;5.548;2023-03-21T04:51:26;17.80;54.00
24744;DHT22;12844;52.110;5.548;2023-03-21T04:53:52;17.80;54.00
24744;DHT22;12844;52.110;5.548;2023-03-21T04:56:22;17.80;54.00
24744;DHT22;12844;52.110;5.548;2023-03-21T04:58:55;17.80;54.00
24744;DHT22;12844;52.110;5.548;2023-03-21T05:01:21;17.80;54.00
24744;DHT22;12844;52.110;5.548;2023-03-21T05:03:47;17.70;54.00
24744;DHT22;12844;52.110;5.548;2023-03-21T05:06:12;17.80;54.00
24744;DHT22;12844;52.110;5.548;2023-03-21T05:08:38;17.70;54.00
24744;DHT22;12844;52.110;5.548;2023-03-21T05:11:04;17.80;54.00
24744;DHT22;12844;52.110;5.548;2023-03-21T05:13:30;17.80;54.00
24744;DHT22;12844;52.110;5.548;2023-03-21T05:15:55;17.70;54.00
24744;DHT22;12844;52.110;5.548;2023-03-21T05:18:21;17.80;54.00
24744;DHT22;12844;52.110;5.548;2023-03-21T05:20:53;17.80;54.00
24744;DHT22;12844;52.110;5.548;2023-03-21T05:23:20;17.70;54.00
24744;DHT22;12844;52.110;5.548;2023-03-21T05:25:46;17.70;54.00
24744;DHT22;12844;52.110;5.548;2023-03-21T05:28:12;17.70;54.00
24744;DHT22;12844;52.110;5.548;2023-03-21T05:30:38;17.70;54.00
24744;DHT22;12844;52.110;5.548;2023-03-21T05:33:04;17.70;54.00
24744;DHT22;12844;52.110;5.548;2023-03-21T05:35:29;17.70;54.00
24744;DHT22;12844;52.110;5.548;2023-03-21T05:37:55;17.70;54.00
24744;DHT22;12844;52.110;5.548;2023-03-21T05:40:20;17.70;54.00
24744;DHT22;12844;52.110;5.548;2023-03-21T05:42:47;17.70;54.00
24744;DHT22;12844;52.110;5.548;2023-03-21T05:45:13;17.70;54.00
24744;DHT22;12844;52.110;5.548;2023-03-21T05:47:39;17.70;54.00
24744;DHT22;12844;52.110;5.548;2023-03-21T05:50:05;17.70;54.00
24744;DHT22;12844;52.110;5.548;2023-03-21T05:52:31;17.70;54.00
24744;DHT22;12844;52.110;5.548;2023-03-21T05:54:57;17.70;54.00
24744;DHT22;12844;52.110;5.548;2023-03-21T05:57:22;17.70;54.00
24744;DHT22;12844;52.110;5.548;2023-03-21T05:59:48;17.70;54.00
24744;DHT22;12844;52.110;5.548;2023-03-21T06:02:14;17.70;54.00
24744;DHT22;12844;52.110;5.548;2023-03-21T06:04:39;17.70;54.00
24744;DHT22;12844;52.110;5.548;2023-03-21T06:07:05;17.60;54.00
24744;DHT22;12844;52.110;5.548;2023-03-21T06:09:31;17.60;54.00
24744;DHT22;12844;52.110;5.548;2023-03-21T06:11:57;17.70;54.00
24744;DHT22;12844;52.110;5.548;2023-03-21T06:14:24;17.70;54.00
24744;DHT22;12844;52.110;5.548;2023-03-21T06:16:49;17.60;54.00
24744;DHT22;12844;52.110;5.548;2023-03-21T06:19:15;17.60;54.00
24744;DHT22;12844;52.110;5.548;2023-03-21T06:21:41;17.60;54.00
24744;DHT22;12844;52.110;5.548;2023-03-21T06:24:07;17.60;54.00
24744;DHT22;12844;52.110;5.548;2023-03-21T06:26:32;17.60;54.00
24744;DHT22;12844;52.110;5.548;2023-03-21T06:28:58;17.60;54.00
24744;DHT22;12844;52.110;5.548;2023-03-21T06:31:24;17.60;54.00
24744;DHT22;12844;52.110;5.548;2023-03-21T06:33:51;17.60;54.00
24744;DHT22;12844;52.110;5.548;2023-03-21T06:36:17;17.60;54.00
24744;DHT22;12844;52.110;5.548;2023-03-21T06:38:43;17.60;54.00
24744;DHT22;12844;52.110;5.548;2023-03-21T06:41:09;17.60;54.00
24744;DHT22;12844;52.110;5.548;2023-03-21T06:43:35;17.60;54.00
24744;DHT22;12844;52.110;5.548;2023-03-21T06:46:01;17.60;54.00
24744;DHT22;12844;52.110;5.548;2023-03-21T06:48:27;17.60;54.00
24744;DHT22;12844;52.110;5.548;2023-03-21T06:50:53;17.60;54.10
24744;DHT22;12844;52.110;5.548;2023-03-21T06:53:20;17.60;54.10
24744;DHT22;12844;52.110;5.548;2023-03-21T06:55:53;17.60;54.10
24744;DHT22;12844;52.110;5.548;2023-03-21T06:58:19;17.60;54.00
24744;DHT22;12844;52.110;5.548;2023-03-21T07:00:46;17.60;54.00
24744;DHT22;12844;52.110;5.548;2023-03-21T07:03:12;17.60;54.20
24744;DHT22;12844;52.110;5.548;2023-03-21T07:05:38;17.60;54.10
24744;DHT22;12844;52.110;5.548;2023-03-21T07:08:05;17.60;54.10
24744;DHT22;12844;52.110;5.548;2023-03-21T07:10:37;17.60;54.20
24744;DHT22;12844;52.110;5.548;2023-03-21T07:13:03;17.60;54.10
24744;DHT22;12844;52.110;5.548;2023-03-21T07:15:29;17.60;54.20
24744;DHT22;12844;52.110;5.548;2023-03-21T07:17:54;17.60;54.10
24744;DHT22;12844;52.110;5.548;2023-03-21T07:20:20;17.60;54.10
24744;DHT22;12844;52.110;5.548;2023-03-21T07:22:45;17.60;54.20
24744;DHT22;12844;52.110;5.548;2023-03-21T07:25:11;17.60;54.10
24744;DHT22;12844;52.110;5.548;2023-03-21T07:27:37;17.60;54.10
24744;DHT22;12844;52.110;5.548;2023-03-21T07:30:03;17.60;54.10
24744;DHT22;12844;52.110;5.548;2023-03-21T07:32:32;17.60;54.10
24744;DHT22;12844;52.110;5.548;2023-03-21T07:34:58;17.60;54.10
24744;DHT22;12844;52.110;5.548;2023-03-21T07:37:24;17.60;54.10
24744;DHT22;12844;52.110;5.548;2023-03-21T07:39:50;17.50;54.10
24744;DHT22;12844;52.110;5.548;2023-03-21T07:42:16;17.60;54.10
24744;DHT22;12844;52.110;5.548;2023-03-21T07:44:41;17.50;54.10
24744;DHT22;12844;52.110;5.548;2023-03-21T07:47:07;17.60;54.10
24744;DHT22;12844;52.110;5.548;2023-03-21T07:49:32;17.60;54.70
24744;DHT22;12844;52.110;5.548;2023-03-21T07:51:58;17.60;54.10
24744;DHT22;12844;52.110;5.548;2023-03-21T07:54:26;17.60;54.00
24744;DHT22;12844;52.110;5.548;2023-03-21T07:56:53;17.60;53.90
24744;DHT22;12844;52.110;5.548;2023-03-21T07:59:19;17.60;54.00
24744;DHT22;12844;52.110;5.548;2023-03-21T08:01:44;17.60;54.40
24744;DHT22;12844;52.110;5.548;2023-03-21T08:04:10;17.70;54.60
24744;DHT22;12844;52.110;5.548;2023-03-21T08:06:35;17.80;54.70
24744;DHT22;12844;52.110;5.548;2023-03-21T08:09:01;18.10;54.70
24744;DHT22;12844;52.110;5.548;2023-03-21T08:11:28;18.30;54.70
24744;DHT22;12844;52.110;5.548;2023-03-21T08:13:56;18.50;54.80
24744;DHT22;12844;52.110;5.548;2023-03-21T08:16:21;18.70;54.70
24744;DHT22;12844;52.110;5.548;2023-03-21T08:18:47;18.80;54.70
24744;DHT22;12844;52.110;5.548;2023-03-21T08:21:12;18.90;54.70
24744;DHT22;12844;52.110;5.548;2023-03-21T08:23:38;19.00;54.70
24744;DHT22;12844;52.110;5.548;2023-03-21T08:26:04;19.10;54.60
24744;DHT22;12844;52.110;5.548;2023-03-21T08:28:29;19.20;54.50
24744;DHT22;12844;52.110;5.548;2023-03-21T08:30:55;19.30;54.30
24744;DHT22;12844;52.110;5.548;2023-03-21T08:33:21;19.40;54.20
24744;DHT22;12844;52.110;5.548;2023-03-21T08:35:47;19.30;54.10
24744;DHT22;12844;52.110;5.548;2023-03-21T08:38:12;19.50;54.30
24744;DHT22;12844;52.110;5.548;2023-03-21T08:40:38;19.50;54.10
24744;DHT22;12844;52.110;5.548;2023-03-21T08:43:04;19.50;54.10
24744;DHT22;12844;52.110;5.548;2023-03-21T08:45:30;19.50;54.00
24744;DHT22;12844;52.110;5.548;2023-03-21T08:47:55;19.60;54.00
24744;DHT22;12844;52.110;5.548;2023-03-21T08:50:23;19.60;53.90
24744;DHT22;12844;52.110;5.548;2023-03-21T08:52:50;19.60;53.80
24744;DHT22;12844;52.110;5.548;2023-03-21T08:55:17;19.60;53.90
24744;DHT22;12844;52.110;5.548;2023-03-21T08:57:43;19.60;53.80
24744;DHT22;12844;52.110;5.548;2023-03-21T09:00:12;19.60;53.70
24744;DHT22;12844;52.110;5.548;2023-03-21T09:02:43;19.70;53.70
24744;DHT22;12844;52.110;5.548;2023-03-21T09:05:10;19.60;53.80
24744;DHT22;12844;52.110;5.548;2023-03-21T09:07:39;19.60;54.00
24744;DHT22;12844;52.110;5.548;2023-03-21T09:10:08;19.60;54.00
24744;DHT22;12844;52.110;5.548;2023-03-21T09:12:34;19.60;54.00
24744;DHT22;12844;52.110;5.548;2023-03-21T09:15:00;19.60;53.90
24744;DHT22;12844;52.110;5.548;2023-03-21T09:17:28;19.60;54.00
24744;DHT22;12844;52.110;5.548;2023-03-21T09:19:53;19.60;54.00
24744;DHT22;12844;52.110;5.548;2023-03-21T09:22:20;19.60;54.00
24744;DHT22;12844;52.110;5.548;2023-03-21T09:24:48;19.60;54.20
24744;DHT22;12844;52.110;5.548;2023-03-21T09:27:15;19.60;54.40
24744;DHT22;12844;52.110;5.548;2023-03-21T09:29:42;19.70;54.40
24744;DHT22;12844;52.110;5.548;2023-03-21T09:32:09;19.90;54.40
24744;DHT22;12844;52.110;5.548;2023-03-21T09:34:37;20.00;54.20
24744;DHT22;12844;52.110;5.548;2023-03-21T09:37:07;20.10;54.30
24744;DHT22;12844;52.110;5.548;2023-03-21T09:39:41;20.20;54.20
24744;DHT22;12844;52.110;5.548;2023-03-21T09:47:34;20.40;53.80
24744;DHT22;12844;52.110;5.548;2023-03-21T09:50:21;20.50;53.50
24744;DHT22;12844;52.110;5.548;2023-03-21T09:53:10;20.50;53.60
24744;DHT22;12844;52.110;5.548;2023-03-21T09:55:40;20.50;53.50
24744;DHT22;12844;52.110;5.548;2023-03-21T10:00:48;20.50;53.60
24744;DHT22;12844;52.110;5.548;2023-03-21T10:03:28;20.40;53.60
24744;DHT22;12844;52.110;5.548;2023-03-21T10:05:55;20.40;53.60
24744;DHT22;12844;52.110;5.548;2023-03-21T10:08:31;20.30;53.60
24744;DHT22;12844;52.110;5.548;2023-03-21T10:11:04;20.30;53.60
24744;DHT22;12844;52.110;5.548;2023-03-21T10:13:34;20.30;53.50
24744;DHT22;12844;52.110;5.548;2023-03-21T10:16:08;20.30;53.60
24744;DHT22;12844;52.110;5.548;2023-03-21T10:18:35;20.30;53.50
24744;DHT22;12844;52.110;5.548;2023-03-21T10:21:02;20.30;53.60
24744;DHT22;12844;52.110;5.548;2023-03-21T10:23:29;20.20;53.60
24744;DHT22;12844;52.110;5.548;2023-03-21T10:25:58;20.20;53.70
24744;DHT22;12844;52.110;5.548;2023-03-21T10:28:29;20.20;53.70
24744;DHT22;12844;52.110;5.548;2023-03-21T10:30:58;20.20;53.80
24744;DHT22;12844;52.110;5.548;2023-03-21T10:33:27;20.20;53.90
24744;DHT22;12844;52.110;5.548;2023-03-21T10:36:00;20.20;53.90
24744;DHT22;12844;52.110;5.548;2023-03-21T10:38:26;20.20;53.90
24744;DHT22;12844;52.110;5.548;2023-03-21T10:40:53;20.10;53.90
24744;DHT22;12844;52.110;5.548;2023-03-21T10:45:51;20.20;54.60
24744;DHT22;12844;52.110;5.548;2023-03-21T10:48:17;20.10;53.80
24744;DHT22;12844;52.110;5.548;2023-03-21T10:50:46;20.10;53.90
24744;DHT22;12844;52.110;5.548;2023-03-21T10:53:18;20.10;53.90
24744;DHT22;12844;52.110;5.548;2023-03-21T10:55:45;20.00;53.80
24744;DHT22;12844;52.110;5.548;2023-03-21T10:58:17;20.00;53.90
24744;DHT22;12844;52.110;5.548;2023-03-21T11:00:44;20.00;53.90
24744;DHT22;12844;52.110;5.548;2023-03-21T11:03:25;20.00;53.80
24744;DHT22;12844;52.110;5.548;2023-03-21T11:06:07;20.00;53.90
24744;DHT22;12844;52.110;5.548;2023-03-21T11:08:39;20.00;53.80
24744;DHT22;12844;52.110;5.548;2023-03-21T11:11:08;20.00;53.80
24744;DHT22;12844;52.110;5.548;2023-03-21T11:13:39;20.00;53.80
24744;DHT22;12844;52.110;5.548;2023-03-21T11:16:17;20.00;53.80
24744;DHT22;12844;52.110;5.548;2023-03-21T11:18:48;20.00;53.80
24744;DHT22;12844;52.110;5.548;2023-03-21T11:21:14;20.00;53.80
24744;DHT22;12844;52.110;5.548;2023-03-21T11:23:46;19.90;53.70
24744;DHT22;12844;52.110;5.548;2023-03-21T11:26:19;19.90;53.80
24744;DHT22;12844;52.110;5.548;2023-03-21T11:28:49;20.00;53.80
24744;DHT22;12844;52.110;5.548;2023-03-21T11:31:16;20.00;53.80
24744;DHT22;12844;52.110;5.548;2023-03-21T11:34:04;19.90;53.80
24744;DHT22;12844;52.110;5.548;2023-03-21T11:36:32;20.00;53.80
24744;DHT22;12844;52.110;5.548;2023-03-21T11:39:11;19.90;53.80
24744;DHT22;12844;52.110;5.548;2023-03-21T11:41:40;20.00;53.80
24744;DHT22;12844;52.110;5.548;2023-03-21T11:44:08;20.00;53.80
24744;DHT22;12844;52.110;5.548;2023-03-21T11:46:47;20.00;53.90
24744;DHT22;12844;52.110;5.548;2023-03-21T11:49:12;20.00;53.80
24744;DHT22;12844;52.110;5.548;2023-03-21T11:54:58;20.00;54.00
24744;DHT22;12844;52.110;5.548;2023-03-21T11:57:42;20.00;53.90
24744;DHT22;12844;52.110;5.548;2023-03-21T12:00:18;20.00;54.10
24744;DHT22;12844;52.110;5.548;2023-03-21T12:03:15;19.90;54.10
24744;DHT22;12844;52.110;5.548;2023-03-21T12:05:53;20.00;54.20
24744;DHT22;12844;52.110;5.548;2023-03-21T12:11:13;20.00;54.10
24744;DHT22;12844;52.110;5.548;2023-03-21T12:16:48;20.00;54.20
24744;DHT22;12844;52.110;5.548;2023-03-21T12:19:32;20.00;54.20
24744;DHT22;12844;52.110;5.548;2023-03-21T12:22:06;20.00;54.30
24744;DHT22;12844;52.110;5.548;2023-03-21T12:24:55;19.90;54.60
24744;DHT22;12844;52.110;5.548;2023-03-21T12:28:00;19.90;54.70
24744;DHT22;12844;52.110;5.548;2023-03-21T12:30:56;19.90;54.70
24744;DHT22;12844;52.110;5.548;2023-03-21T12:33:40;19.90;54.80
24744;DHT22;12844;52.110;5.548;2023-03-21T12:44:23;19.80;54.70
24744;DHT22;12844;52.110;5.548;2023-03-21T12:46:57;19.80;54.70
24744;DHT22;12844;52.110;5.548;2023-03-21T12:52:15;19.80;54.70
24744;DHT22;12844;52.110;5.548;2023-03-21T12:54:48;19.80;54.60
24744;DHT22;12844;52.110;5.548;2023-03-21T13:02:43;19.80;54.60
24744;DHT22;12844;52.110;5.548;2023-03-21T13:05:27;19.80;54.60
24744;DHT22;12844;52.110;5.548;2023-03-21T13:07:59;19.80;54.70
24744;DHT22;12844;52.110;5.548;2023-03-21T13:10:25;19.80;54.70
24744;DHT22;12844;52.110;5.548;2023-03-21T13:21:02;19.80;54.80
24744;DHT22;12844;52.110;5.548;2023-03-21T13:23:36;19.80;54.80
24744;DHT22;12844;52.110;5.548;2023-03-21T13:26:08;19.90;54.80
24744;DHT22;12844;52.110;5.548;2023-03-21T13:28:34;19.90;54.80
24744;DHT22;12844;52.110;5.548;2023-03-21T13:31:29;19.90;54.80
24744;DHT22;12844;52.110;5.548;2023-03-21T13:33:58;19.90;54.60
24744;DHT22;12844;52.110;5.548;2023-03-21T13:36:27;20.00;54.70
24744;DHT22;12844;52.110;5.548;2023-03-21T13:38:58;20.00;54.70
24744;DHT22;12844;52.110;5.548;2023-03-21T13:41:41;20.00;54.60
24744;DHT22;12844;52.110;5.548;2023-03-21T13:47:03;20.00;54.60
24744;DHT22;12844;52.110;5.548;2023-03-21T13:49:34;19.90;54.50
24744;DHT22;12844;52.110;5.548;2023-03-21T13:52:24;20.00;54.60
24744;DHT22;12844;52.110;5.548;2023-03-21T13:54:56;20.00;54.50
24744;DHT22;12844;52.110;5.548;2023-03-21T14:02:57;20.00;54.50
24744;DHT22;12844;52.110;5.548;2023-03-21T14:05:25;20.00;54.60
24744;DHT22;12844;52.110;5.548;2023-03-21T14:07:59;20.00;54.60
24744;DHT22;12844;52.110;5.548;2023-03-21T14:10:44;20.00;54.50
24744;DHT22;12844;52.110;5.548;2023-03-21T14:13:15;20.00;54.50
24744;DHT22;12844;52.110;5.548;2023-03-21T14:15:45;19.90;54.60
24744;DHT22;12844;52.110;5.548;2023-03-21T14:18:17;19.90;54.50
24744;DHT22;12844;52.110;5.548;2023-03-21T14:20:43;19.90;54.60
24744;DHT22;12844;52.110;5.548;2023-03-21T14:23:14;19.90;54.60
24744;DHT22;12844;52.110;5.548;2023-03-21T14:25:40;19.90;54.60
24744;DHT22;12844;52.110;5.548;2023-03-21T14:28:13;19.90;54.60
24744;DHT22;12844;52.110;5.548;2023-03-21T14:30:41;19.90;54.60
24744;DHT22;12844;52.110;5.548;2023-03-21T14:35:54;19.90;54.50
24744;DHT22;12844;52.110;5.548;2023-03-21T14:38:26;19.90;54.50
24744;DHT22;12844;52.110;5.548;2023-03-21T14:40:54;19.90;54.50
24744;DHT22;12844;52.110;5.548;2023-03-21T14:43:22;19.90;54.60
24744;DHT22;12844;52.110;5.548;2023-03-21T14:45:50;19.90;54.60
24744;DHT22;12844;52.110;5.548;2023-03-21T14:48:20;19.90;54.60
24744;DHT22;12844;52.110;5.548;2023-03-21T14:50:52;19.90;54.60
24744;DHT22;12844;52.110;5.548;2023-03-21T14:53:26;19.90;54.70
24744;DHT22;12844;52.110;5.548;2023-03-21T14:55:59;19.90;54.70
24744;DHT22;12844;52.110;5.548;2023-03-21T14:58:26;19.80;54.60
24744;DHT22;12844;52.110;5.548;2023-03-21T15:00:55;19.80;54.60
24744;DHT22;12844;52.110;5.548;2023-03-21T15:03:22;19.80;54.70
24744;DHT22;12844;52.110;5.548;2023-03-21T15:05:48;19.80;54.70
24744;DHT22;12844;52.110;5.548;2023-03-21T15:08:19;19.80;55.30
24744;DHT22;12844;52.110;5.548;2023-03-21T15:10:57;19.80;54.70
24744;DHT22;12844;52.110;5.548;2023-03-21T15:13:32;19.80;54.70
24744;DHT22;12844;52.110;5.548;2023-03-21T15:15:59;19.80;54.70
24744;DHT22;12844;52.110;5.548;2023-03-21T15:18:28;19.80;54.70
24744;DHT22;12844;52.110;5.548;2023-03-21T15:20:55;19.80;54.80
24744;DHT22;12844;52.110;5.548;2023-03-21T15:23:46;19.80;54.80
24744;DHT22;12844;52.110;5.548;2023-03-21T15:26:18;19.80;54.70
24744;DHT22;12844;52.110;5.548;2023-03-21T15:28:46;19.80;54.80
24744;DHT22;12844;52.110;5.548;2023-03-21T15:31:18;19.70;54.70
24744;DHT22;12844;52.110;5.548;2023-03-21T15:33:46;19.70;54.80
24744;DHT22;12844;52.110;5.548;2023-03-21T15:36:18;19.70;54.80
24744;DHT22;12844;52.110;5.548;2023-03-21T15:38:45;19.70;54.90
24744;DHT22;12844;52.110;5.548;2023-03-21T15:43:54;19.70;54.90
24744;DHT22;12844;52.110;5.548;2023-03-21T15:46:42;19.70;54.90
24744;DHT22;12844;52.110;5.548;2023-03-21T15:49:09;19.70;54.80
24744;DHT22;12844;52.110;5.548;2023-03-21T15:51:35;19.70;54.90
24744;DHT22;12844;52.110;5.548;2023-03-21T15:54:01;19.70;54.80
24744;DHT22;12844;52.110;5.548;2023-03-21T15:56:27;19.70;54.90
24744;DHT22;12844;52.110;5.548;2023-03-21T15:59:00;19.70;54.90
24744;DHT22;12844;52.110;5.548;2023-03-21T16:01:29;19.70;54.90
24744;DHT22;12844;52.110;5.548;2023-03-21T16:04:01;19.70;54.80
24744;DHT22;12844;52.110;5.548;2023-03-21T16:06:32;19.70;54.80
24744;DHT22;12844;52.110;5.548;2023-03-21T16:11:39;19.80;54.60
24744;DHT22;12844;52.110;5.548;2023-03-21T16:14:05;19.80;54.50
24744;DHT22;12844;52.110;5.548;2023-03-21T16:16:31;19.80;54.50
24744;DHT22;12844;52.110;5.548;2023-03-21T16:18:59;19.80;54.50
24744;DHT22;12844;52.110;5.548;2023-03-21T16:21:26;19.90;54.80
24744;DHT22;12844;52.110;5.548;2023-03-21T16:23:52;19.80;55.00
24744;DHT22;12844;52.110;5.548;2023-03-21T16:26:24;19.90;55.20
24744;DHT22;12844;52.110;5.548;2023-03-21T16:28:50;20.00;55.20
24744;DHT22;12844;52.110;5.548;2023-03-21T16:31:22;20.10;55.20
24744;DHT22;12844;52.110;5.548;2023-03-21T16:33:48;20.30;55.10
24744;DHT22;12844;52.110;5.548;2023-03-21T16:36:16;20.50;55.20
24744;DHT22;12844;52.110;5.548;2023-03-21T16:38:46;20.60;54.90
24744;DHT22;12844;52.110;5.548;2023-03-21T16:41:13;20.80;55.00
24744;DHT22;12844;52.110;5.548;2023-03-21T16:43:39;20.90;54.90
24744;DHT22;12844;52.110;5.548;2023-03-21T16:46:18;21.00;54.80
24744;DHT22;12844;52.110;5.548;2023-03-21T16:48:45;21.10;54.80
24744;DHT22;12844;52.110;5.548;2023-03-21T16:51:16;21.10;54.50
24744;DHT22;12844;52.110;5.548;2023-03-21T16:53:43;21.20;54.30
24744;DHT22;12844;52.110;5.548;2023-03-21T16:56:13;21.30;54.20
24744;DHT22;12844;52.110;5.548;2023-03-21T16:58:39;21.30;54.10
24744;DHT22;12844;52.110;5.548;2023-03-21T17:01:07;21.30;53.90
24744;DHT22;12844;52.110;5.548;2023-03-21T17:03:34;21.40;54.00
24744;DHT22;12844;52.110;5.548;2023-03-21T17:05:59;21.40;53.80
24744;DHT22;12844;52.110;5.548;2023-03-21T17:08:25;21.40;53.70
24744;DHT22;12844;52.110;5.548;2023-03-21T17:10:53;21.50;53.70
24744;DHT22;12844;52.110;5.548;2023-03-21T17:13:18;21.50;53.70